Time;durP1;ratioP1;P1;durP2;ratioP2;P2;SDS_P1;SDS_P2;PMS_P1;PMS_P2;Temp;Humidity;BMP_temperature;BMP_pressure;BME280_temperature;BME280_humidity;BME280_pressure;Samples;Min_cycle;Max_cycle;Signal;HPM_P1;HPM_P2
2021/06/01 00:01:24;;;;;;;3.98;1.37;;;;;;;11.99;62.52;100660.03;1784424;78;21125;-68
2021/06/01 00:03:50;;;;;;;4.47;1.37;;;;;;;11.96;62.56;100661.11;1783703;79;21109;-67
2021/06/01 00:06:17;;;;;;;5.65;1.57;;;;;;;11.94;62.56;100657.77;1758604;79;21126;-67
2021/06/01 00:08:44;;;;;;;4.65;1.62;;;;;;;11.92;62.76;100662.80;1764376;79;21106;-67
2021/06/01 00:11:10;;;;;;;6.42;1.52;;;;;;;11.86;62.67;100659.66;1784314;79;21070;-67
2021/06/01 00:13:36;;;;;;;5.97;2.00;;;;;;;11.80;62.98;100666.77;1770443;79;21594;-67
2021/06/01 00:16:03;;;;;;;4.87;1.75;;;;;;;11.72;63.15;100663.91;1763169;78;21063;-68
2021/06/01 00:18:30;;;;;;;5.60;1.62;;;;;;;11.65;63.39;100661.39;1726571;80;21149;-67
2021/06/01 00:20:57;;;;;;;4.90;1.57;;;;;;;11.63;63.64;100667.27;1760231;79;21443;-67
2021/06/01 00:23:23;;;;;;;4.17;1.55;;;;;;;11.70;63.78;100665.34;1766579;79;21077;-67
2021/06/01 00:25:50;;;;;;;5.35;1.70;;;;;;;11.76;63.89;100667.13;1763826;79;21078;-68
2021/06/01 00:28:17;;;;;;;3.87;1.55;;;;;;;11.75;64.09;100664.98;1743376;80;21126;-67
2021/06/01 00:30:43;;;;;;;6.70;2.00;;;;;;;11.73;64.38;100663.42;1777565;79;21081;-68
2021/06/01 00:33:10;;;;;;;6.15;1.67;;;;;;;11.70;64.31;100666.67;1764994;79;21537;-67
2021/06/01 00:35:38;;;;;;;5.40;1.60;;;;;;;11.67;64.51;100669.55;1776865;79;21085;-67
2021/06/01 00:38:07;;;;;;;4.22;1.80;;;;;;;11.62;64.51;100668.25;1773410;79;21054;-67
2021/06/01 00:40:34;;;;;;;6.58;1.65;;;;;;;11.59;64.42;100675.08;1767339;79;21947;-67
2021/06/01 00:43:00;;;;;;;5.33;1.75;;;;;;;11.49;64.56;100671.84;1772666;79;21085;-67
2021/06/01 00:45:27;;;;;;;5.25;1.95;;;;;;;11.43;64.82;100672.34;1758768;79;21090;-67
2021/06/01 00:47:54;;;;;;;5.12;1.57;;;;;;;11.44;64.66;100666.59;1771091;79;21821;-67
2021/06/01 00:50:24;;;;;;;6.10;1.90;;;;;;;11.47;64.46;100662.39;1777188;79;22346;-68
2021/06/01 00:52:52;;;;;;;4.10;1.55;;;;;;;11.46;64.43;100664.66;1763651;79;21038;-67
2021/06/01 00:55:19;;;;;;;7.45;1.85;;;;;;;11.38;64.58;100674.97;1760902;79;21990;-67
2021/06/01 00:57:45;;;;;;;4.78;1.77;;;;;;;11.31;64.72;100669.34;1763731;79;21078;-67
2021/06/01 01:00:32;;;;;;;8.20;1.65;;;;;;;11.22;64.97;100670.08;1770333;79;22167;-67
2021/06/01 01:02:42;;;;;;;5.50;1.67;;;;;;;11.12;64.84;100668.63;1722065;80;21091;-67
2021/06/01 01:05:12;;;;;;;5.10;1.87;;;;;;;11.08;65.08;100671.16;1766248;79;21090;-68
2021/06/01 01:07:44;;;;;;;4.22;1.35;;;;;;;11.04;65.23;100670.53;1703831;80;21124;-67
2021/06/01 01:10:07;;;;;;;6.08;2.15;;;;;;;11.04;65.18;100673.66;1705272;81;21074;-67
2021/06/01 01:12:52;;;;;;;4.03;1.32;;;;;;;11.08;65.42;100667.20;1745237;79;21048;-67
2021/06/01 01:15:22;;;;;;;6.47;1.77;;;;;;;11.11;65.25;100666.48;1758933;79;21085;-68
2021/06/01 01:17:51;;;;;;;4.50;1.45;;;;;;;11.11;65.01;100660.36;1778640;79;21041;-67
2021/06/01 01:20:33;;;;;;;6.85;1.47;;;;;;;11.10;65.30;100666.60;1776252;78;21069;-67
2021/06/01 01:23:08;;;;;;;5.75;2.10;;;;;;;11.07;65.31;100668.98;1785519;79;21020;-68
2021/06/01 01:25:39;;;;;;;6.53;2.08;;;;;;;11.05;65.43;100669.59;1774599;78;21093;-67
2021/06/01 01:28:48;;;;;;;3.83;1.50;;;;;;;11.01;65.31;100669.94;1781424;79;21594;-67
2021/06/01 01:31:40;;;;;;;7.70;2.00;;;;;;;10.97;65.63;100666.70;1742684;80;21077;-67
2021/06/01 01:34:07;;;;;;;5.55;1.90;;;;;;;10.89;65.83;100665.14;1726747;81;21050;-68
2021/06/01 01:36:34;;;;;;;4.05;1.32;;;;;;;10.87;65.93;100671.00;1749927;81;21321;-68
2021/06/01 01:39:01;;;;;;;3.70;1.57;;;;;;;10.90;65.79;100672.92;1753017;79;21720;-68
2021/06/01 01:41:27;;;;;;;5.53;1.62;;;;;;;10.95;65.80;100668.13;1782466;78;21056;-68
2021/06/01 01:43:56;;;;;;;5.22;2.08;;;;;;;11.00;65.91;100672.23;1749149;79;21058;-68
2021/06/01 01:49:01;;;;;;;7.53;1.75;;;;;;;10.94;65.89;100666.94;1772482;79;21061;-67
2021/06/01 01:51:37;;;;;;;6.30;2.12;;;;;;;10.90;66.27;100665.02;1752856;80;21768;-67
2021/06/01 01:54:10;;;;;;;6.65;1.82;;;;;;;10.88;66.47;100668.25;1765525;79;21109;-68
2021/06/01 01:56:38;;;;;;;5.55;1.92;;;;;;;10.86;66.29;100671.95;1753456;79;21099;-67
2021/06/01 01:59:13;;;;;;;5.17;1.52;;;;;;;10.81;66.31;100673.64;1755939;79;21088;-68
2021/06/01 02:01:42;;;;;;;4.30;1.70;;;;;;;10.81;66.44;100672.33;1776470;79;21028;-68
2021/06/01 02:04:11;;;;;;;3.75;1.70;;;;;;;10.87;66.35;100667.05;1752340;80;21105;-67
2021/06/01 02:06:38;;;;;;;5.85;2.25;;;;;;;10.88;66.13;100668.25;1775340;79;21068;-67
2021/06/01 02:09:07;;;;;;;4.30;1.80;;;;;;;10.88;66.31;100669.58;1755936;80;21615;-68
2021/06/01 02:11:33;;;;;;;5.08;2.12;;;;;;;10.85;66.53;100668.97;1766961;79;21063;-67
2021/06/01 02:14:05;;;;;;;5.35;1.92;;;;;;;10.82;66.33;100673.16;1775879;79;21636;-68
2021/06/01 02:16:31;;;;;;;5.03;1.98;;;;;;;10.77;66.49;100666.92;1769300;79;21126;-67
2021/06/01 02:18:58;;;;;;;3.62;1.52;;;;;;;10.74;66.45;100673.72;1735525;79;21057;-67
2021/06/01 02:21:46;;;;;;;5.60;1.80;;;;;;;10.70;66.50;100670.98;1764449;79;21082;-68
2021/06/01 02:24:11;;;;;;;6.20;2.10;;;;;;;10.71;66.63;100671.35;1776777;79;21393;-67
2021/06/01 02:27:09;;;;;;;5.03;1.87;;;;;;;10.76;66.43;100668.72;1772467;79;21859;-68
2021/06/01 02:30:01;;;;;;;5.42;1.50;;;;;;;10.80;66.15;100669.32;1756512;79;21074;-68
2021/06/01 02:32:50;;;;;;;7.08;2.50;;;;;;;10.73;66.20;100670.27;1757574;79;21086;-67
2021/06/01 02:35:23;;;;;;;5.85;1.75;;;;;;;10.65;66.45;100670.49;1760907;79;21060;-67
2021/06/01 02:37:50;;;;;;;5.75;2.08;;;;;;;10.58;66.44;100674.06;1768030;79;21109;-67
2021/06/01 02:40:20;;;;;;;5.97;2.35;;;;;;;10.55;66.60;100673.80;1767228;79;21595;-67
2021/06/01 02:42:46;;;;;;;4.47;1.90;;;;;;;10.55;66.96;100672.97;1763357;79;21106;-67
2021/06/01 02:45:17;;;;;;;6.60;2.10;;;;;;;10.59;66.74;100673.95;1784990;79;21117;-68
2021/06/01 02:47:44;;;;;;;5.08;2.12;;;;;;;10.68;66.59;100676.36;1764193;79;21122;-67
2021/06/01 02:50:14;;;;;;;5.00;2.30;;;;;;;10.73;66.22;100677.33;1763437;79;21556;-67
2021/06/01 02:52:42;;;;;;;5.08;2.08;;;;;;;10.70;66.08;100679.70;1762658;79;21039;-68
2021/06/01 02:55:11;;;;;;;4.67;2.15;;;;;;;10.70;66.59;100681.02;1766600;79;22061;-68
2021/06/01 02:57:39;;;;;;;6.40;2.10;;;;;;;10.73;66.75;100684.74;1761265;79;21098;-67
2021/06/01 03:00:13;;;;;;;7.83;2.05;;;;;;;10.73;66.65;100677.33;1768018;79;21567;-68
2021/06/01 03:02:40;;;;;;;5.70;2.02;;;;;;;10.72;66.62;100679.59;1766878;79;21626;-67
2021/06/01 03:05:09;;;;;;;6.15;2.08;;;;;;;10.76;66.52;100673.98;1759926;79;21310;-68
2021/06/01 03:07:39;;;;;;;6.03;2.12;;;;;;;10.88;66.45;100677.96;1764835;79;21072;-67
2021/06/01 03:10:10;;;;;;;4.83;1.80;;;;;;;10.94;66.16;100673.52;1771903;79;21635;-67
2021/06/01 03:12:55;;;;;;;4.75;2.17;;;;;;;10.96;66.02;100678.18;1752912;80;21093;-66
2021/06/01 03:15:16;;;;;;;4.53;1.92;;;;;;;10.95;65.72;100673.41;1751245;80;21565;-66
2021/06/01 03:17:42;;;;;;;6.85;2.08;;;;;;;10.94;65.81;100676.15;1764479;79;21058;-66
2021/06/01 03:20:10;;;;;;;6.67;2.10;;;;;;;10.97;65.96;100678.55;1775982;80;21070;-66
2021/06/01 03:22:37;;;;;;;7.10;1.95;;;;;;;10.96;65.10;100680.36;1768790;79;21078;-67
2021/06/01 03:25:04;;;;;;;7.85;2.17;;;;;;;10.95;65.42;100677.35;1752707;80;21574;-67
2021/06/01 03:27:31;;;;;;;4.37;1.67;;;;;;;11.02;65.11;100674.25;1779191;80;21072;-67
2021/06/01 03:29:58;;;;;;;4.67;1.75;;;;;;;11.11;65.01;100677.48;1774174;80;21041;-67
2021/06/01 03:32:25;;;;;;;5.37;1.77;;;;;;;11.18;64.93;100677.84;1767934;79;22351;-68
2021/06/01 03:34:51;;;;;;;4.42;2.02;;;;;;;11.20;65.02;100681.22;1752388;79;21101;-67
2021/06/01 03:37:18;;;;;;;6.33;2.42;;;;;;;11.21;64.40;100681.55;1747537;79;21107;-68
2021/06/01 03:39:46;;;;;;;6.28;2.20;;;;;;;11.20;64.21;100676.78;1751188;79;21631;-68
2021/06/01 03:42:13;;;;;;;5.45;2.20;;;;;;;11.20;63.79;100678.09;1772532;79;21096;-67
2021/06/01 03:44:42;;;;;;;6.03;2.35;;;;;;;11.18;64.11;100673.44;1776588;79;21065;-68
2021/06/01 03:47:10;;;;;;;5.55;2.02;;;;;;;11.20;64.00;100677.27;1767074;79;21072;-67
2021/06/01 03:49:37;;;;;;;6.90;1.95;;;;;;;11.28;64.00;100671.75;1778193;79;21054;-67
2021/06/01 03:52:08;;;;;;;5.70;1.70;;;;;;;11.33;63.75;100655.56;1769053;79;21105;-68
2021/06/01 03:54:36;;;;;;;7.40;1.95;;;;;;;11.33;63.46;100655.10;1776767;79;21060;-67
2021/06/01 03:57:04;;;;;;;5.85;2.20;;;;;;;11.35;63.50;100649.72;1751703;80;21169;-68
2021/06/01 03:59:30;;;;;;;5.50;2.00;;;;;;;11.36;63.33;100656.64;1748770;80;21070;-69
2021/06/01 04:01:57;;;;;;;6.28;2.20;;;;;;;11.38;62.82;100655.20;1763048;79;21094;-67
2021/06/01 04:04:23;;;;;;;5.00;1.82;;;;;;;11.38;62.65;100649.48;1763040;79;21367;-67
2021/06/01 04:06:49;;;;;;;4.90;2.05;;;;;;;11.38;62.78;100652.11;1760968;79;21431;-67
2021/06/01 04:09:17;;;;;;;4.50;1.72;;;;;;;11.38;62.85;100650.80;1751157;80;21832;-67
2021/06/01 04:11:44;;;;;;;6.00;2.65;;;;;;;11.45;62.61;100653.29;1752906;80;21126;-66
2021/06/01 04:14:10;;;;;;;5.58;2.37;;;;;;;11.58;62.09;100651.81;1733822;80;21054;-65
2021/06/01 04:16:37;;;;;;;7.55;2.40;;;;;;;11.67;61.89;100653.73;1720508;80;21615;-68
2021/06/01 04:19:05;;;;;;;5.20;2.40;;;;;;;11.71;61.78;100655.63;1773189;79;21070;-66
2021/06/01 04:21:32;;;;;;;6.83;2.10;;;;;;;11.76;61.65;100652.63;1756193;80;21086;-67
2021/06/01 04:23:58;;;;;;;6.87;2.75;;;;;;;11.80;61.21;100651.41;1759495;79;21137;-66
2021/06/01 04:26:27;;;;;;;7.45;2.37;;;;;;;11.81;60.75;100647.83;1752485;79;21084;-66
2021/06/01 04:28:53;;;;;;;4.17;1.70;;;;;;;11.83;60.50;100655.13;1761804;79;21095;-66
2021/06/01 04:31:19;;;;;;;7.50;2.05;;;;;;;11.83;60.33;100653.31;1767808;79;21038;-66
2021/06/01 04:33:46;;;;;;;4.40;1.82;;;;;;;11.85;60.23;100654.51;1752598;79;21137;-66
2021/06/01 04:36:12;;;;;;;5.53;2.55;;;;;;;11.86;59.94;100649.11;1746566;80;21693;-66
2021/06/01 04:38:39;;;;;;;4.20;1.95;;;;;;;11.86;59.92;100652.24;1749362;79;21086;-66
2021/06/01 04:41:05;;;;;;;4.10;1.80;;;;;;;11.94;60.12;100649.85;1757581;79;21123;-66
2021/06/01 04:43:32;;;;;;;4.80;2.08;;;;;;;12.05;60.02;100652.45;1769997;79;21585;-66
2021/06/01 04:45:59;;;;;;;5.80;2.00;;;;;;;12.17;60.23;100656.34;1765126;79;21153;-65
2021/06/01 04:48:25;;;;;;;7.03;2.55;;;;;;;12.21;60.01;100649.88;1750449;79;21069;-65
2021/06/01 04:50:51;;;;;;;7.70;2.37;;;;;;;12.27;60.45;100649.34;1769799;79;21086;-65
2021/06/01 04:53:18;;;;;;;7.85;2.35;;;;;;;12.34;59.03;100644.39;1742542;80;21078;-66
2021/06/01 04:55:44;;;;;;;5.15;2.00;;;;;;;12.37;58.59;100647.64;1759296;79;21130;-66
2021/06/01 04:58:10;;;;;;;5.08;2.10;;;;;;;12.39;59.11;100640.89;1770903;79;21086;-66
2021/06/01 05:00:37;;;;;;;6.30;2.02;;;;;;;12.43;58.31;100636.55;1765381;79;21078;-68
2021/06/01 05:03:03;;;;;;;5.92;1.98;;;;;;;12.43;58.67;100648.42;1737553;79;21068;-66
2021/06/01 05:05:31;;;;;;;4.75;1.98;;;;;;;12.43;57.99;100645.79;1725968;79;21490;-67
2021/06/01 05:07:58;;;;;;;5.17;2.10;;;;;;;12.43;58.56;100645.79;1752538;79;21098;-67
2021/06/01 05:10:24;;;;;;;6.37;2.12;;;;;;;12.46;58.44;100648.67;1762415;79;21771;-66
2021/06/01 05:12:50;;;;;;;5.53;1.85;;;;;;;12.49;58.02;100642.28;1747539;79;21078;-66
2021/06/01 05:15:17;;;;;;;6.03;2.08;;;;;;;12.48;58.09;100644.09;1762063;79;21058;-67
2021/06/01 05:17:44;;;;;;;4.87;2.22;;;;;;;12.50;58.31;100643.96;1754219;79;20983;-66
2021/06/01 05:20:11;;;;;;;4.12;1.60;;;;;;;12.54;57.30;100641.41;1765776;79;21026;-67
2021/06/01 05:22:38;;;;;;;5.00;1.95;;;;;;;12.56;57.88;100645.60;1726489;79;21026;-68
2021/06/01 05:25:06;;;;;;;6.37;1.98;;;;;;;12.61;58.14;100641.27;1755134;80;21643;-66
2021/06/01 05:27:32;;;;;;;3.65;1.45;;;;;;;12.77;58.41;100650.02;1744268;80;22249;-66
2021/06/01 05:30:02;;;;;;;5.20;1.70;;;;;;;12.95;57.42;100646.30;1754319;80;21102;-67
2021/06/01 05:35:24;;;;;;;5.53;1.70;;;;;;;13.14;56.37;100644.22;1743210;80;21224;-66
2021/06/01 05:37:46;;;;;;;4.22;1.70;;;;;;;13.20;56.74;100647.17;1738755;80;21118;-66
2021/06/01 05:40:14;;;;;;;5.95;2.00;;;;;;;13.26;56.97;100648.43;1755861;79;21603;-65
2021/06/01 05:42:40;;;;;;;4.00;1.35;;;;;;;13.33;56.59;100647.44;1769717;79;21120;-64
2021/06/01 05:45:09;;;;;;;5.87;1.82;;;;;;;13.38;56.65;100648.73;1742853;79;21081;-65
2021/06/01 05:47:35;;;;;;;5.55;1.87;;;;;;;13.47;56.47;100648.41;1700676;82;21159;-66
2021/06/01 05:50:04;;;;;;;4.33;1.80;;;;;;;13.53;55.19;100650.52;1764582;79;21540;-67
2021/06/01 05:52:33;;;;;;;5.17;1.50;;;;;;;13.54;54.48;100643.41;1761234;79;21129;-67
2021/06/01 05:55:00;;;;;;;5.30;1.55;;;;;;;13.50;54.24;100652.10;1749831;80;21793;-68
2021/06/01 05:57:26;;;;;;;4.87;1.30;;;;;;;13.47;54.40;100651.54;1711150;82;21015;-67
2021/06/01 05:59:53;;;;;;;3.15;1.05;;;;;;;13.44;54.08;100647.34;1680646;83;21176;-68
2021/06/01 06:02:19;;;;;;;6.50;1.77;;;;;;;13.42;54.80;100636.08;1760211;79;21137;-68
2021/06/01 06:04:45;;;;;;;4.12;1.40;;;;;;;13.45;54.47;100650.35;1764574;79;21121;-68
2021/06/01 06:07:12;;;;;;;4.55;1.55;;;;;;;13.46;54.49;100649.86;1770347;79;20983;-68
2021/06/01 06:09:39;;;;;;;5.60;1.40;;;;;;;13.48;55.24;100654.52;1784440;78;21040;-68
2021/06/01 06:12:06;;;;;;;3.83;1.57;;;;;;;13.58;55.40;100661.16;1787015;79;22038;-67
2021/06/01 06:14:33;;;;;;;4.17;1.40;;;;;;;13.67;55.23;100655.06;1783418;78;21614;-68
2021/06/01 06:17:30;;;;;;;5.28;1.40;;;;;;;13.75;55.08;100657.84;1786657;79;21001;-67
2021/06/01 06:20:00;;;;;;;5.22;1.45;;;;;;;13.87;55.10;100659.88;1780754;79;22273;-67
2021/06/01 06:23:43;;;;;;;13.22;1.67;;;;;;;14.15;55.20;100662.19;1862015;75;22637;-68
2021/06/01 06:26:09;;;;;;;6.55;1.60;;;;;;;14.24;53.83;100665.34;1815223;77;21027;-68
2021/06/01 06:28:37;;;;;;;5.05;1.92;;;;;;;14.40;54.03;100659.96;1836222;76;21472;-68
2021/06/01 06:31:03;;;;;;;4.50;1.20;;;;;;;14.53;54.25;100659.68;1844877;75;20980;-68
2021/06/01 06:33:30;;;;;;;4.58;1.82;;;;;;;14.62;54.11;100653.55;1839551;75;21643;-68
2021/06/01 06:35:56;;;;;;;7.72;1.37;;;;;;;14.71;53.56;100651.38;1811806;77;20973;-68
2021/06/01 06:38:23;;;;;;;4.97;1.47;;;;;;;14.75;52.69;100646.63;1840226;76;21514;-68
2021/06/01 06:43:27;;;;;;;3.77;1.55;;;;;;;14.79;53.25;100638.73;1845812;75;21432;-68
2021/06/01 06:45:54;;;;;;;6.62;2.15;;;;;;;14.76;52.83;100640.33;1841566;75;21051;-67
2021/06/01 06:48:20;;;;;;;4.53;1.65;;;;;;;14.72;52.83;100645.09;1839396;75;21123;-67
2021/06/01 06:50:46;;;;;;;6.95;1.82;;;;;;;14.64;52.24;100644.50;1844626;75;21077;-67
2021/06/01 06:53:13;;;;;;;6.22;1.67;;;;;;;14.50;52.27;100639.10;1808056;77;21167;-66
2021/06/01 06:55:39;;;;;;;8.00;2.98;;;;;;;14.39;53.09;100641.93;1830697;76;21068;-68
2021/06/01 06:58:07;;;;;;;4.10;1.37;;;;;;;14.36;52.75;100643.53;1843780;75;21111;-67
2021/06/01 07:00:35;;;;;;;4.45;1.57;;;;;;;14.33;52.83;100639.02;1842637;75;21067;-68
2021/06/01 07:03:02;;;;;;;4.28;1.45;;;;;;;14.32;52.26;100640.80;1835828;77;21079;-67
2021/06/01 07:05:29;;;;;;;3.98;1.00;;;;;;;14.33;52.16;100637.69;1844419;75;21636;-68
2021/06/01 07:07:56;;;;;;;2.77;1.10;;;;;;;14.33;51.40;100640.34;1840627;77;20929;-66
2021/06/01 07:10:23;;;;;;;2.58;0.85;;;;;;;14.39;51.30;100639.75;1832449;76;21121;-67
2021/06/01 07:12:49;;;;;;;3.90;1.35;;;;;;;14.48;52.01;100636.27;1848981;75;21048;-67
2021/06/01 07:15:28;;;;;;;4.87;1.20;;;;;;;14.62;51.49;100641.63;1840620;75;21036;-66
2021/06/01 07:17:56;;;;;;;3.40;1.20;;;;;;;14.78;52.52;100634.42;1839097;77;21090;-67
2021/06/01 07:20:22;;;;;;;3.92;1.25;;;;;;;14.91;50.49;100635.41;1844720;75;20948;-68
2021/06/01 07:22:48;;;;;;;2.83;1.10;;;;;;;14.94;50.52;100637.28;1788355;78;21752;-67
2021/06/01 07:25:15;;;;;;;2.45;1.00;;;;;;;14.97;50.08;100626.89;1781125;79;20981;-68
2021/06/01 07:27:41;;;;;;;4.75;1.17;;;;;;;15.04;50.67;100636.75;1773583;79;21052;-67
2021/06/01 07:30:09;;;;;;;4.08;0.93;;;;;;;15.17;50.62;100635.60;1779203;79;21084;-67
2021/06/01 07:32:36;;;;;;;3.70;1.02;;;;;;;15.29;49.99;100638.39;1817732;77;21618;-67
2021/06/01 07:35:03;;;;;;;5.05;1.15;;;;;;;15.41;50.08;100647.80;1811196;77;21126;-67
2021/06/01 07:37:29;;;;;;;3.17;0.93;;;;;;;15.53;49.45;100638.33;1794580;78;21313;-67
2021/06/01 07:39:56;;;;;;;2.98;1.00;;;;;;;15.64;49.58;100632.83;1782280;79;21581;-67
2021/06/01 07:42:23;;;;;;;3.77;1.02;;;;;;;15.78;49.41;100642.11;1787343;78;21770;-68
2021/06/01 07:44:49;;;;;;;2.72;1.10;;;;;;;15.89;49.39;100638.42;1786289;77;20984;-67
2021/06/01 07:47:16;;;;;;;3.98;1.42;;;;;;;15.99;48.77;100636.52;1812028;78;21182;-68
2021/06/01 07:49:42;;;;;;;5.20;1.35;;;;;;;16.00;48.31;100635.52;1783635;79;21005;-68
2021/06/01 07:52:08;;;;;;;2.62;0.78;;;;;;;16.04;48.18;100637.37;1789530;78;21042;-68
2021/06/01 07:54:35;;;;;;;4.72;1.22;;;;;;;16.09;46.58;100635.94;1754583;79;22016;-65
2021/06/01 07:57:02;;;;;;;3.10;1.05;;;;;;;16.16;45.45;100636.17;1777180;79;21052;-66
2021/06/01 07:59:28;;;;;;;2.30;0.82;;;;;;;16.21;44.99;100645.83;1789279;78;21063;-66
2021/06/01 08:01:55;;;;;;;3.77;0.95;;;;;;;16.19;44.18;100645.62;1762244;79;21414;-67
2021/06/01 08:04:21;;;;;;;3.12;1.10;;;;;;;16.13;44.69;100631.98;1785528;78;21099;-66
2021/06/01 08:06:47;;;;;;;3.90;0.70;;;;;;;16.13;44.90;100628.50;1791793;78;21063;-65
2021/06/01 08:09:14;;;;;;;3.30;1.10;;;;;;;16.16;44.90;100617.58;1813096;77;21044;-65
2021/06/01 08:11:40;;;;;;;4.17;1.62;;;;;;;16.21;44.11;100627.25;1788898;78;21083;-65
2021/06/01 08:14:07;;;;;;;5.35;1.25;;;;;;;16.20;43.92;100618.11;1821424;78;21601;-65
2021/06/01 08:16:34;;;;;;;2.47;1.02;;;;;;;16.21;44.99;100618.45;1779219;78;21087;-65
2021/06/01 08:19:20;;;;;;;6.92;0.98;;;;;;;16.28;44.91;100616.84;1755528;78;21211;-65
2021/06/01 08:21:50;;;;;;;3.08;0.95;;;;;;;16.35;44.84;100612.07;1766060;79;21570;-65
2021/06/01 08:24:10;;;;;;;4.00;1.00;;;;;;;16.41;45.20;100610.64;1759178;79;21076;-65
2021/06/01 08:26:37;;;;;;;2.77;0.98;;;;;;;16.49;44.26;100611.17;1762576;78;21100;-65
2021/06/01 08:29:03;;;;;;;3.12;1.05;;;;;;;16.55;43.78;100613.72;1784493;78;21384;-65
2021/06/01 08:31:30;;;;;;;3.02;0.88;;;;;;;16.57;44.13;100607.75;1758682;79;21826;-65
2021/06/01 08:33:57;;;;;;;3.72;1.22;;;;;;;16.61;45.14;100601.11;1780994;78;21118;-64
2021/06/01 08:36:25;;;;;;;4.33;0.95;;;;;;;16.68;44.15;100595.03;1741713;80;21055;-66
2021/06/01 08:38:53;;;;;;;4.22;1.30;;;;;;;16.78;43.87;100602.89;1786632;78;21123;-65
2021/06/01 08:41:19;;;;;;;2.58;0.90;;;;;;;16.83;43.52;100607.74;1786744;78;21521;-65
2021/06/01 08:43:47;;;;;;;5.17;1.25;;;;;;;16.83;43.75;100604.58;1789251;78;21075;-67
2021/06/01 08:46:14;;;;;;;3.77;1.50;;;;;;;16.85;43.33;100606.61;1799210;78;21130;-67
2021/06/01 08:48:41;;;;;;;2.22;0.90;;;;;;;16.82;42.24;100606.06;1777532;78;21053;-67
2021/06/01 08:51:07;;;;;;;2.58;1.15;;;;;;;16.72;42.18;100596.37;1793153;78;21021;-66
2021/06/01 08:53:34;;;;;;;3.58;1.00;;;;;;;16.76;42.48;100600.90;1793547;79;21040;-66
2021/06/01 08:56:04;;;;;;;6.33;1.07;;;;;;;16.84;41.84;100592.12;1797889;78;21258;-67
2021/06/01 08:58:30;;;;;;;3.02;0.90;;;;;;;16.86;42.10;100599.46;1790134;78;21122;-67
2021/06/01 09:00:59;;;;;;;5.37;1.12;;;;;;;16.82;41.92;100600.24;1797458;78;21582;-66
2021/06/01 09:03:27;;;;;;;2.80;0.80;;;;;;;16.77;41.39;100601.22;1780158;79;21037;-66
2021/06/01 09:06:14;;;;;;;5.85;1.45;;;;;;;16.75;42.51;100603.20;1793352;78;21058;-67
2021/06/01 09:22:01;;;;;;;4.75;1.10;;;;;;;17.07;41.74;100591.92;1803721;78;21097;-67
2021/06/01 09:24:28;;;;;;;2.45;0.85;;;;;;;17.13;42.12;100587.80;1774470;78;21510;-66
2021/06/01 09:29:32;;;;;;;3.62;1.30;;;;;;;17.26;42.11;100584.20;1803969;78;21032;-67
2021/06/01 09:32:18;;;;;;;4.25;1.40;;;;;;;17.23;41.57;100586.32;1809157;78;21036;-67
2021/06/01 09:34:47;;;;;;;3.00;1.10;;;;;;;17.16;41.65;100584.80;1808810;78;21111;-67
2021/06/01 09:37:28;;;;;;;4.25;1.27;;;;;;;16.96;41.33;100584.73;1808179;77;21090;-67
2021/06/01 09:40:09;;;;;;;5.30;1.75;;;;;;;16.84;41.79;100585.00;1805072;77;21118;-66
2021/06/01 09:42:39;;;;;;;3.80;1.22;;;;;;;16.81;42.19;100574.68;1809175;77;21091;-67
2021/06/01 09:45:12;;;;;;;4.60;1.27;;;;;;;16.83;41.49;100574.02;1770250;78;21424;-67
2021/06/01 09:47:59;;;;;;;4.00;1.15;;;;;;;16.83;40.51;100581.17;1762342;79;22018;-67
2021/06/01 09:50:35;;;;;;;4.72;1.17;;;;;;;16.82;41.80;100577.66;1790906;78;21002;-67
2021/06/01 09:53:17;;;;;;;3.22;1.07;;;;;;;16.82;41.00;100571.02;1783829;78;21072;-67
2021/06/01 09:55:44;;;;;;;3.67;1.07;;;;;;;16.80;39.50;100573.51;1789929;78;21632;-67
2021/06/01 09:58:16;;;;;;;3.70;0.90;;;;;;;16.76;40.63;100575.66;1781414;79;21132;-67
2021/06/01 10:00:44;;;;;;;3.95;1.10;;;;;;;16.79;41.04;100573.98;1769714;78;21882;-68
2021/06/01 10:03:16;;;;;;;3.70;1.20;;;;;;;16.82;40.84;100554.24;1806547;78;21357;-67
2021/06/01 10:05:43;;;;;;;4.10;1.20;;;;;;;16.85;41.18;100579.21;1805436;78;21108;-67
2021/06/01 10:08:18;;;;;;;3.33;0.80;;;;;;;16.92;40.24;100583.39;1776069;80;21064;-66
2021/06/01 10:11:03;;;;;;;5.92;1.17;;;;;;;16.97;40.17;100572.61;1778760;78;21068;-66
2021/06/01 10:13:35;;;;;;;4.95;0.80;;;;;;;17.11;39.95;100571.16;1801870;78;21072;-66
2021/06/01 10:16:13;;;;;;;3.45;1.10;;;;;;;17.26;40.96;100571.38;1769878;79;21123;-66
2021/06/01 10:18:42;;;;;;;2.55;0.80;;;;;;;17.36;39.60;100573.91;1777555;78;21064;-66
2021/06/01 10:21:14;;;;;;;4.83;0.95;;;;;;;17.35;39.71;100574.88;1780071;78;21033;-66
2021/06/01 10:23:42;;;;;;;3.60;1.10;;;;;;;17.29;39.42;100573.72;1806956;78;21377;-66
2021/06/01 10:26:11;;;;;;;3.25;1.20;;;;;;;17.29;40.43;100572.39;1776428;78;21104;-65
2021/06/01 10:28:45;;;;;;;4.37;1.17;;;;;;;17.32;39.87;100569.91;1805688;78;21731;-66
2021/06/01 10:31:14;;;;;;;3.47;0.98;;;;;;;17.31;39.74;100573.55;1793286;78;21047;-66
2021/06/01 10:33:47;;;;;;;5.65;1.00;;;;;;;17.23;39.04;100570.36;1776470;79;21610;-66
2021/06/01 10:50:40;;;;;;;;;;;;;;;16.92;39.20;100564.79;1806963;77;21090;-67
2021/06/01 10:53:20;;;;;;;4.90;1.72;;;;;;;16.94;39.08;100565.45;1824187;77;21066;-66
2021/06/01 10:56:02;;;;;;;4.83;1.50;;;;;;;16.83;39.57;100560.73;1789070;78;21080;-67
2021/06/01 10:58:43;;;;;;;5.58;1.50;;;;;;;16.75;40.55;100568.66;1784047;78;21040;-67
2021/06/01 11:04:25;;;;;;;6.25;1.27;;;;;;;16.72;40.72;100575.11;1767552;78;21052;-66
2021/06/01 11:06:56;;;;;;;4.35;1.20;;;;;;;16.76;40.83;100569.48;1785082;78;21170;-66
2021/06/01 11:09:37;;;;;;;4.12;1.10;;;;;;;16.77;39.80;100560.03;1790998;78;20944;-66
2021/06/01 11:12:20;;;;;;;3.27;1.07;;;;;;;16.78;40.89;100563.03;1784270;78;20957;-66
2021/06/01 11:14:50;;;;;;;2.83;1.00;;;;;;;16.85;40.25;100558.77;1786232;79;21043;-66
2021/06/01 11:17:37;;;;;;;3.20;1.17;;;;;;;17.01;39.19;100557.17;1791055;78;21512;-66
2021/06/01 11:23:09;;;;;;;3.40;0.93;;;;;;;17.36;39.14;100557.94;1787795;78;21103;-66
2021/06/01 11:33:39;;;;;;;3.25;1.25;;;;;;;17.85;38.66;100551.34;1759729;79;21072;-67
2021/06/01 11:36:13;;;;;;;3.20;1.12;;;;;;;17.81;38.73;100548.18;1762177;79;21115;-67
2021/06/01 11:39:00;;;;;;;4.78;1.27;;;;;;;17.78;38.41;100552.50;1758806;79;21052;-67
2021/06/01 11:44:27;;;;;;;5.15;1.47;;;;;;;17.75;37.05;100555.99;1646863;85;21103;-68
2021/06/01 11:47:15;;;;;;;3.92;1.00;;;;;;;17.73;38.12;100555.34;1651082;85;22395;-67
2021/06/01 11:52:12;;;;;;;3.55;1.10;;;;;;;17.75;37.88;100556.84;1761454;79;21048;-67
2021/06/01 11:54:38;;;;;;;2.95;1.00;;;;;;;17.85;38.26;100560.66;1754148;79;21080;-67
2021/06/01 12:02:40;;;;;;;5.97;1.27;;;;;;;18.24;37.44;100549.84;1772254;80;21364;-67
2021/06/01 12:05:30;;;;;;;10.08;1.40;;;;;;;18.24;37.41;100546.70;1757978;78;21453;-67
2021/06/01 12:19:04;;;;;;;4.47;1.00;;;;;;;17.98;37.31;100549.55;1787092;78;21119;-67
2021/06/01 12:21:43;;;;;;;3.65;1.30;;;;;;;18.03;37.54;100547.72;1789171;78;21067;-67
2021/06/01 12:24:20;;;;;;;4.72;1.45;;;;;;;18.12;37.75;100546.22;1789737;78;21057;-66
2021/06/01 12:32:33;;;;;;;3.70;1.10;;;;;;;18.19;36.05;100543.21;1779084;78;22485;-66
2021/06/01 12:43:15;;;;;;;3.33;1.10;;;;;;;18.21;36.67;100544.38;1737390;80;21135;-67
2021/06/01 13:20:51;;;;;;;3.92;1.00;;;;;;;17.56;37.16;100536.69;1773353;78;21072;-66
2021/06/01 13:40:22;;;;;;;3.80;1.02;;;;;;;17.70;37.70;100533.89;1758466;81;21720;-66
2021/06/01 13:56:15;;;;;;;3.12;1.00;;;;;;;18.18;37.17;100538.87;1746337;80;21146;-66
2021/06/01 13:59:01;;;;;;;4.97;1.60;;;;;;;18.29;37.11;100529.71;1743530;80;21162;-66
2021/06/01 14:01:31;;;;;;;3.75;0.95;;;;;;;18.29;36.77;100534.19;1746669;80;21121;-66
2021/06/01 14:09:45;;;;;;;1.95;0.68;;;;;;;17.95;37.43;100553.87;1754220;81;21084;-66
2021/06/01 14:15:20;;;;;;;7.47;1.30;;;;;;;17.83;36.93;100552.83;1747151;81;21652;-66
2021/06/01 14:20:33;;;;;;;5.15;1.25;;;;;;;17.54;37.99;100553.32;1747965;81;21574;-67
2021/06/01 15:49:11;;;;;;;3.27;1.20;;;;;;;17.99;36.90;100546.72;1749783;79;21088;-64